Time;durP1;ratioP1;P1;durP2;ratioP2;P2;SDS_P1;SDS_P2;PMS_P1;PMS_P2;Temp;Humidity;BMP_temperature;BMP_pressure;BME280_temperature;BME280_humidity;BME280_pressure;Samples;Min_cycle;Max_cycle;Signal;HPM_P1;HPM_P2
2023/12/04 00:01:14;;;;;;;18.10;11.30;;;;;;;-3.69;100.00;99608.14;109536;1251;59003;-74
2023/12/04 00:03:45;;;;;;;18.20;11.80;;;;;;;-3.68;100.00;99607.98;108820;1251;1002579;-74
2023/12/04 00:06:12;;;;;;;15.30;10.40;;;;;;;-3.68;100.00;99609.89;108783;1251;1002447;-74
2023/12/04 00:08:39;;;;;;;17.00;12.20;;;;;;;-3.68;100.00;99611.29;109585;1251;60858;-75
2023/12/04 00:11:06;;;;;;;16.30;10.80;;;;;;;-3.68;100.00;99612.14;109593;1251;63967;-74
2023/12/04 00:13:33;;;;;;;16.50;11.30;;;;;;;-3.67;100.00;99618.56;109571;1251;58928;-74
2023/12/04 00:16:00;;;;;;;16.70;11.20;;;;;;;-3.67;100.00;99619.09;109536;1251;59080;-74
2023/12/04 00:18:26;;;;;;;16.40;10.80;;;;;;;-3.65;100.00;99617.89;109409;1251;66739;-75
2023/12/04 00:20:53;;;;;;;15.30;10.70;;;;;;;-3.64;100.00;99617.88;109583;1250;61032;-75
2023/12/04 00:23:20;;;;;;;17.50;11.80;;;;;;;-3.63;100.00;99617.19;109530;1251;63815;-75
2023/12/04 00:25:46;;;;;;;15.50;11.20;;;;;;;-3.63;100.00;99622.04;109569;1251;59275;-75
2023/12/04 00:28:13;;;;;;;17.50;11.50;;;;;;;-3.61;100.00;99625.51;109535;1251;59036;-74
2023/12/04 00:30:40;;;;;;;15.80;10.30;;;;;;;-3.61;100.00;99624.46;109590;1251;67182;-72
2023/12/04 00:33:06;;;;;;;14.70;9.40;;;;;;;-3.60;100.00;99624.65;109570;1251;59760;-74
2023/12/04 00:35:33;;;;;;;20.00;12.00;;;;;;;-3.60;100.00;99625.17;109246;1251;63815;-74
2023/12/04 00:37:59;;;;;;;20.20;11.30;;;;;;;-3.59;100.00;99621.52;109556;1251;58944;-73
2023/12/04 00:40:26;;;;;;;15.50;12.00;;;;;;;-3.58;100.00;99624.13;109528;1251;59311;-73
2023/12/04 00:42:53;;;;;;;17.50;11.60;;;;;;;-3.58;100.00;99621.36;109316;1251;67020;-74
2023/12/04 00:45:20;;;;;;;20.50;14.10;;;;;;;-3.59;100.00;99616.66;108848;1251;1003084;-74
2023/12/04 00:47:46;;;;;;;14.80;11.10;;;;;;;-3.60;100.00;99617.88;108794;1251;1002246;-73
2023/12/04 00:50:13;;;;;;;17.20;12.70;;;;;;;-3.62;100.00;99616.83;108752;1251;1002858;-74
2023/12/04 00:52:39;;;;;;;16.70;11.30;;;;;;;-3.63;100.00;99617.53;109578;1251;59116;-74
2023/12/04 00:55:06;;;;;;;18.20;12.50;;;;;;;-3.65;100.00;99623.95;108799;1251;1002226;-73
2023/12/04 00:57:33;;;;;;;20.00;13.50;;;;;;;-3.67;100.00;99625.00;109531;1251;61453;-74
2023/12/04 00:59:59;;;;;;;19.70;12.70;;;;;;;-3.69;100.00;99629.51;109584;1251;65191;-73
2023/12/04 01:02:26;;;;;;;23.10;15.00;;;;;;;-3.71;100.00;99628.98;109549;1251;58942;-74
2023/12/04 01:04:53;;;;;;;16.20;11.00;;;;;;;-3.71;100.00;99634.52;109554;1251;59010;-74
2023/12/04 01:07:20;;;;;;;16.90;12.70;;;;;;;-3.72;100.00;99632.61;109585;1251;65961;-74
2023/12/04 01:09:46;;;;;;;21.30;13.50;;;;;;;-3.73;100.00;99631.41;109588;1251;61050;-73
2023/12/04 01:12:13;;;;;;;20.60;13.90;;;;;;;-3.74;100.00;99630.19;109534;1251;63970;-73
2023/12/04 01:14:39;;;;;;;18.30;13.30;;;;;;;-3.74;100.00;99632.62;109583;1251;59284;-73
2023/12/04 01:17:06;;;;;;;19.50;13.30;;;;;;;-3.75;100.00;99628.27;109369;1251;59338;-74
2023/12/04 01:19:33;;;;;;;22.40;14.80;;;;;;;-3.76;100.00;99627.94;109565;1251;66983;-73
2023/12/04 01:21:59;;;;;;;21.30;14.50;;;;;;;-3.77;100.00;99629.16;109583;1251;61064;-73
2023/12/04 01:24:26;;;;;;;19.20;13.20;;;;;;;-3.78;100.00;99631.41;109245;1251;65061;-73
2023/12/04 01:26:52;;;;;;;21.60;13.00;;;;;;;-3.80;100.00;99632.62;109278;1251;59071;-74
2023/12/04 01:29:19;;;;;;;21.10;12.50;;;;;;;-3.81;100.00;99631.58;109603;1251;59020;-74
2023/12/04 01:31:46;;;;;;;18.60;12.90;;;;;;;-3.81;100.00;99634.89;109556;1251;67204;-73
2023/12/04 01:34:12;;;;;;;18.60;13.20;;;;;;;-3.82;100.00;99635.23;109634;1251;61137;-74
2023/12/04 01:36:42;;;;;;;19.30;12.50;;;;;;;-3.82;100.00;99636.45;109579;1251;65022;-74
2023/12/04 01:39:08;;;;;;;19.00;13.30;;;;;;;-3.83;100.00;99631.92;109553;1251;59001;-74
2023/12/04 01:41:35;;;;;;;18.00;13.10;;;;;;;-3.83;100.00;99630.70;109268;1251;59207;-74
2023/12/04 01:44:02;;;;;;;20.40;12.80;;;;;;;-3.85;100.00;99629.15;108772;1251;1003056;-73
2023/12/04 01:46:29;;;;;;;18.20;12.30;;;;;;;-3.85;100.00;99631.73;109581;1251;59273;-74
2023/12/04 01:48:56;;;;;;;16.00;11.60;;;;;;;-3.86;100.00;99633.65;109566;1251;64729;-73
2023/12/04 01:51:23;;;;;;;17.50;11.40;;;;;;;-3.87;100.00;99635.91;109516;1251;59019;-74
2023/12/04 01:53:50;;;;;;;16.60;11.40;;;;;;;-3.88;100.00;99635.73;109559;1251;59198;-74
2023/12/04 01:56:17;;;;;;;17.40;12.20;;;;;;;-3.88;100.00;99635.21;109356;1251;66016;-74
2023/12/04 01:58:44;;;;;;;17.30;13.00;;;;;;;-3.90;100.00;99634.86;109392;1251;61068;-75
2023/12/04 02:01:11;;;;;;;21.60;14.60;;;;;;;-3.92;100.00;99633.47;109569;1251;62794;-74
2023/12/04 02:03:40;;;;;;;19.20;13.00;;;;;;;-3.94;100.00;99631.56;109535;1251;58982;-74
2023/12/04 02:06:09;;;;;;;19.20;12.40;;;;;;;-3.95;100.00;99627.73;108842;1251;1002363;-74
2023/12/04 02:08:35;;;;;;;17.40;12.20;;;;;;;-3.98;100.00;99627.39;109613;1251;67033;-75
2023/12/04 02:11:02;;;;;;;20.00;12.50;;;;;;;-3.99;100.00;99626.52;109589;1251;60286;-74
2023/12/04 02:13:29;;;;;;;19.70;12.90;;;;;;;-4.02;100.00;99627.91;109588;1251;65098;-73
2023/12/04 02:15:58;;;;;;;20.00;12.40;;;;;;;-4.05;100.00;99625.64;108786;1251;1002069;-74
2023/12/04 02:18:25;;;;;;;19.60;12.90;;;;;;;-4.07;100.00;99629.10;109542;1251;58976;-74
2023/12/04 02:20:53;;;;;;;19.20;13.90;;;;;;;-4.10;100.00;99626.33;109547;1251;66962;-74
2023/12/04 02:23:19;;;;;;;20.90;13.10;;;;;;;-4.13;100.00;99624.05;109596;1251;60867;-74
2023/12/04 02:25:46;;;;;;;20.30;13.80;;;;;;;-4.17;100.00;99620.40;109579;1255;63955;-74
2023/12/04 02:28:15;;;;;;;19.10;14.10;;;;;;;-4.22;100.00;99621.08;109575;1251;58993;-75
2023/12/04 02:30:44;;;;;;;21.00;14.10;;;;;;;-4.28;100.00;99620.20;109574;1251;59071;-74
2023/12/04 02:33:13;;;;;;;18.00;13.20;;;;;;;-4.34;100.00;99621.41;109598;1251;66823;-73
2023/12/04 02:35:41;;;;;;;18.40;12.20;;;;;;;-4.40;100.00;99617.73;108793;1251;1002664;-74
2023/12/04 02:38:09;;;;;;;19.10;12.70;;;;;;;-4.46;100.00;99618.40;109539;1251;64014;-73
2023/12/04 02:40:36;;;;;;;22.70;14.00;;;;;;;-4.51;100.00;99619.94;109548;1251;59037;-74
2023/12/04 02:43:03;;;;;;;18.50;13.60;;;;;;;-4.56;100.00;99621.48;108481;1256;1002262;-75
2023/12/04 02:45:30;;;;;;;18.20;13.30;;;;;;;-4.61;100.00;99623.03;108747;1251;1002469;-73
2023/12/04 02:47:56;;;;;;;20.70;13.90;;;;;;;-4.63;100.00;99620.59;108838;1251;1002977;-74
2023/12/04 02:50:23;;;;;;;19.90;13.70;;;;;;;-4.66;100.00;99621.27;108839;1251;1002696;-74
2023/12/04 02:52:49;;;;;;;20.50;13.80;;;;;;;-4.68;100.00;99619.53;108854;1251;1002154;-74
2023/12/04 02:55:16;;;;;;;21.40;13.80;;;;;;;-4.69;100.00;99615.88;108024;1251;1003102;-74
2023/12/04 02:57:43;;;;;;;23.90;14.40;;;;;;;-4.71;100.00;99615.88;109621;1251;66112;-74
2023/12/04 03:00:34;;;;;;;22.20;14.40;;;;;;;-4.76;100.00;99618.63;108834;1251;1002436;-74
2023/12/04 03:03:01;;;;;;;23.00;15.60;;;;;;;-4.83;100.00;99625.17;109561;1251;65332;-75
2023/12/04 03:05:28;;;;;;;24.60;15.50;;;;;;;-4.86;100.00;99634.00;109370;1251;59016;-75
2023/12/04 03:07:55;;;;;;;21.50;14.60;;;;;;;-4.86;100.00;99637.64;109372;1251;59269;-75
2023/12/04 03:10:21;;;;;;;21.60;14.50;;;;;;;-4.84;100.00;99640.26;109614;1251;66252;-75
2023/12/04 03:12:48;;;;;;;22.60;15.10;;;;;;;-4.81;100.00;99639.74;109562;1251;60148;-74
2023/12/04 03:15:15;;;;;;;22.10;14.20;;;;;;;-4.76;100.00;99636.83;109552;1251;65198;-74
2023/12/04 03:17:41;;;;;;;22.50;15.60;;;;;;;-4.70;100.00;99632.17;109557;1253;59026;-75
2023/12/04 03:20:08;;;;;;;24.20;15.80;;;;;;;-4.65;100.00;99630.65;109275;1251;59081;-74
2023/12/04 03:22:36;;;;;;;23.30;14.80;;;;;;;-4.59;100.00;99627.02;109571;1251;67161;-74
2023/12/04 03:25:03;;;;;;;24.50;15.70;;;;;;;-4.55;100.00;99625.84;109560;1251;61117;-74
2023/12/04 03:27:30;;;;;;;21.10;14.60;;;;;;;-4.50;100.00;99627.41;108772;1251;1002435;-74
2023/12/04 03:29:57;;;;;;;23.70;15.10;;;;;;;-4.47;100.00;99628.98;108813;1251;1002571;-74
2023/12/04 03:32:23;;;;;;;20.70;14.70;;;;;;;-4.44;100.00;99629.86;109553;1251;59014;-74
2023/12/04 03:34:50;;;;;;;20.70;15.00;;;;;;;-4.42;100.00;99631.08;109583;1251;59018;-74
2023/12/04 03:37:16;;;;;;;20.50;13.40;;;;;;;-4.41;100.00;99634.90;109599;1251;58951;-74
2023/12/04 03:39:43;;;;;;;18.30;13.20;;;;;;;-4.42;100.00;99634.73;109525;1251;59060;-74
2023/12/04 03:42:10;;;;;;;19.30;13.90;;;;;;;-4.41;100.00;99634.20;109534;1251;59042;-74
2023/12/04 03:44:36;;;;;;;20.00;14.20;;;;;;;-4.40;100.00;99638.71;109605;1251;59742;-75
2023/12/04 03:47:03;;;;;;;22.10;14.40;;;;;;;-4.40;100.00;99640.27;109539;1251;67309;-73
2023/12/04 03:49:30;;;;;;;22.00;14.80;;;;;;;-4.39;100.00;99639.24;109559;1251;60124;-73
2023/12/04 03:51:56;;;;;;;20.80;14.20;;;;;;;-4.37;100.00;99641.86;109572;1251;64182;-74
2023/12/04 03:54:23;;;;;;;20.70;14.80;;;;;;;-4.35;100.00;99646.38;109262;1251;59341;-72
2023/12/04 03:56:50;;;;;;;19.30;13.00;;;;;;;-4.32;100.00;99651.59;109457;1251;171833;-73
2023/12/04 03:59:16;;;;;;;19.20;13.70;;;;;;;-4.30;100.00;99657.48;109610;1251;66891;-73
2023/12/04 04:01:43;;;;;;;19.40;14.20;;;;;;;-4.28;100.00;99658.70;109629;1251;61172;-73
2023/12/04 04:04:09;;;;;;;19.70;13.90;;;;;;;-4.26;100.00;99657.15;109601;1251;63818;-74
2023/12/04 04:06:38;;;;;;;20.80;14.30;;;;;;;-4.24;100.00;99658.90;109570;1253;59106;-74
2023/12/04 04:09:05;;;;;;;21.40;14.30;;;;;;;-4.22;100.00;99659.78;109594;1251;59022;-74
2023/12/04 04:11:31;;;;;;;22.90;14.90;;;;;;;-4.18;100.00;99657.70;109597;1251;74358;-74
2023/12/04 04:13:58;;;;;;;20.70;14.70;;;;;;;-4.17;100.00;99656.66;109590;1250;60158;-75
2023/12/04 04:16:25;;;;;;;21.90;14.30;;;;;;;-4.14;100.00;99655.62;109589;1251;65064;-74
2023/12/04 04:18:51;;;;;;;19.50;14.00;;;;;;;-4.12;100.00;99657.02;109573;1251;59120;-75
2023/12/04 04:21:18;;;;;;;18.90;13.50;;;;;;;-4.11;100.00;99656.68;109586;1251;58866;-75
2023/12/04 04:23:44;;;;;;;20.20;13.80;;;;;;;-4.12;100.00;99661.36;109396;1251;66195;-74
2023/12/04 04:26:11;;;;;;;21.90;14.70;;;;;;;-4.13;100.00;99658.76;109577;1251;60026;-74
2023/12/04 04:28:38;;;;;;;23.30;14.50;;;;;;;-4.12;100.00;99657.20;109584;1250;65050;-74
2023/12/04 04:31:04;;;;;;;25.50;20.90;;;;;;;-4.11;100.00;99657.20;109556;1251;59113;-72
2023/12/04 04:33:31;;;;;;;32.90;24.90;;;;;;;-4.08;100.00;99655.82;109588;1255;58963;-74
2023/12/04 04:35:58;;;;;;;38.80;27.50;;;;;;;-4.07;100.00;99654.96;109595;1251;66756;-73
2023/12/04 04:38:24;;;;;;;34.70;26.90;;;;;;;-4.04;100.00;99650.11;109627;1250;61220;-73
2023/12/04 04:40:52;;;;;;;29.30;21.00;;;;;;;-4.02;100.00;99653.76;109320;1251;65049;-73
2023/12/04 04:43:19;;;;;;;32.60;22.80;;;;;;;-4.01;100.00;99656.36;109582;1251;59006;-73
2023/12/04 04:45:46;;;;;;;34.30;24.70;;;;;;;-4.01;100.00;99657.23;108801;1251;1002328;-73
2023/12/04 04:48:13;;;;;;;32.20;23.70;;;;;;;-4.01;100.00;99657.92;109617;1251;67090;-73
2023/12/04 04:50:39;;;;;;;36.00;25.20;;;;;;;-4.02;100.00;99659.84;109567;1251;59910;-73
2023/12/04 04:53:06;;;;;;;32.80;23.30;;;;;;;-4.01;100.00;99664.51;109557;1251;65082;-74
2023/12/04 04:55:32;;;;;;;32.10;22.60;;;;;;;-4.00;100.00;99666.42;109586;1251;58965;-74
2023/12/04 04:57:59;;;;;;;34.60;25.00;;;;;;;-4.00;100.00;99668.69;109599;1251;59000;-74
2023/12/04 05:00:26;;;;;;;30.40;23.60;;;;;;;-4.01;100.00;99671.80;109583;1251;66692;-73
2023/12/04 05:02:52;;;;;;;36.00;26.60;;;;;;;-3.99;100.00;99670.25;109570;1250;69346;-74
2023/12/04 05:05:19;;;;;;;39.30;28.20;;;;;;;-3.97;100.00;99665.75;109280;1251;63659;-74
2023/12/04 05:07:45;;;;;;;37.70;28.30;;;;;;;-3.93;100.00;99662.10;109611;1251;59012;-74
2023/12/04 05:10:12;;;;;;;42.00;30.90;;;;;;;-3.91;100.00;99662.80;109575;1251;58926;-75
2023/12/04 05:12:39;;;;;;;41.70;32.60;;;;;;;-3.91;100.00;99661.77;109604;1251;66815;-73
2023/12/04 05:15:06;;;;;;;39.60;31.90;;;;;;;-3.91;100.00;99661.94;109620;1251;61269;-75
2023/12/04 05:17:32;;;;;;;43.40;34.30;;;;;;;-3.89;100.00;99659.69;109382;1251;65024;-74
2023/12/04 05:19:59;;;;;;;42.70;31.50;;;;;;;-3.87;100.00;99660.38;109562;1251;59019;-74
2023/12/04 05:22:25;;;;;;;41.80;30.30;;;;;;;-3.86;100.00;99661.60;109630;1251;59188;-73
2023/12/04 05:24:52;;;;;;;42.60;31.60;;;;;;;-3.87;100.00;99662.46;109269;1251;67005;-73
2023/12/04 05:27:19;;;;;;;42.00;28.70;;;;;;;-3.87;100.00;99662.83;109571;1250;61004;-73
2023/12/04 05:29:46;;;;;;;39.70;31.20;;;;;;;-3.87;100.00;99661.09;109546;1251;64001;-74
2023/12/04 05:32:13;;;;;;;38.00;26.70;;;;;;;-3.86;100.00;99659.86;109600;1251;58934;-74
2023/12/04 05:34:39;;;;;;;32.90;26.10;;;;;;;-3.86;100.00;99661.77;109607;1251;59138;-72
2023/12/04 05:37:06;;;;;;;30.90;24.40;;;;;;;-3.87;100.00;99660.38;109581;1250;66036;-74
2023/12/04 05:39:33;;;;;;;31.70;24.30;;;;;;;-3.87;100.00;99661.77;109618;1251;61304;-74
2023/12/04 05:41:59;;;;;;;30.20;21.70;;;;;;;-3.86;100.00;99657.61;109525;1251;63891;-73
2023/12/04 05:44:26;;;;;;;30.90;22.00;;;;;;;-3.86;100.00;99657.96;109516;1251;58962;-76
2023/12/04 05:46:53;;;;;;;33.40;22.60;;;;;;;-3.86;100.00;99656.92;109571;1251;59090;-74
2023/12/04 05:49:20;;;;;;;29.00;22.00;;;;;;;-3.85;100.00;99656.05;109565;1250;66953;-74
2023/12/04 05:51:46;;;;;;;31.30;22.20;;;;;;;-3.84;100.00;99655.54;109663;1251;60013;-74
2023/12/04 05:54:13;;;;;;;31.00;23.10;;;;;;;-3.84;100.00;99656.05;109558;1251;64954;-73
2023/12/04 05:56:39;;;;;;;27.80;21.90;;;;;;;-3.83;100.00;99653.11;109606;1251;58961;-74
2023/12/04 05:59:06;;;;;;;30.20;21.60;;;;;;;-3.81;100.00;99648.07;109634;1251;58933;-74
2023/12/04 06:01:33;;;;;;;28.60;20.90;;;;;;;-3.80;100.00;99645.29;109612;1251;66043;-74
2023/12/04 06:03:59;;;;;;;29.10;21.30;;;;;;;-3.79;100.00;99645.46;109548;1251;61150;-74
2023/12/04 06:06:27;;;;;;;26.30;20.30;;;;;;;-3.78;100.00;99643.20;109567;1251;65640;-74
2023/12/04 06:08:53;;;;;;;30.40;21.70;;;;;;;-3.77;100.00;99644.60;108792;1251;1002667;-74
2023/12/04 06:11:20;;;;;;;32.10;21.40;;;;;;;-3.75;100.00;99643.39;108753;1251;1002407;-74
2023/12/04 06:13:47;;;;;;;34.80;24.70;;;;;;;-3.75;100.00;99647.38;108845;1250;1002348;-74
2023/12/04 06:16:14;;;;;;;35.40;25.10;;;;;;;-3.75;100.00;99649.81;109599;1251;60180;-74
2023/12/04 06:18:40;;;;;;;35.40;24.00;;;;;;;-3.76;100.00;99646.52;108864;1251;1002440;-74
2023/12/04 06:21:07;;;;;;;34.00;24.10;;;;;;;-3.77;100.00;99642.70;108794;1251;1002674;-74
2023/12/04 06:23:34;;;;;;;32.40;25.00;;;;;;;-3.76;100.00;99643.74;109573;1251;60286;-74
2023/12/04 06:26:01;;;;;;;33.10;25.40;;;;;;;-3.76;100.00;99645.82;109581;1251;66324;-74
2023/12/04 06:28:28;;;;;;;34.20;25.30;;;;;;;-3.76;100.00;99642.35;109563;1251;61278;-74
2023/12/04 06:30:55;;;;;;;37.20;27.30;;;;;;;-3.77;100.00;99637.66;109234;1251;65076;-73
2023/12/04 06:33:22;;;;;;;41.10;26.70;;;;;;;-3.78;100.00;99637.14;108802;1251;1002748;-74
2023/12/04 06:35:49;;;;;;;40.80;28.60;;;;;;;-3.77;100.00;99637.83;109537;1251;59132;-73
2023/12/04 06:38:18;;;;;;;45.20;29.90;;;;;;;-3.74;100.00;99638.52;109592;1251;65953;-74
2023/12/04 06:40:46;;;;;;;42.10;30.70;;;;;;;-3.73;100.00;99638.87;109478;1251;61082;-74
2023/12/04 06:43:33;;;;;;;40.90;30.00;;;;;;;-3.70;100.00;99639.91;109394;1251;63686;-75
2023/12/04 06:46:02;;;;;;;37.70;27.80;;;;;;;-3.67;100.00;99638.88;109547;1251;58995;-74
2023/12/04 06:48:29;;;;;;;37.80;28.20;;;;;;;-3.66;100.00;99636.98;109635;1251;59098;-75
2023/12/04 06:50:55;;;;;;;37.10;26.70;;;;;;;-3.65;100.00;99637.84;109576;1250;67033;-75
2023/12/04 06:53:22;;;;;;;39.80;28.20;;;;;;;-3.68;100.00;99640.45;109590;1251;60900;-74
2023/12/04 06:55:48;;;;;;;36.50;27.80;;;;;;;-3.76;100.00;99640.27;109635;1251;65005;-75
2023/12/04 06:58:15;;;;;;;38.10;27.40;;;;;;;-3.84;100.00;99635.91;109544;1251;59266;-74
2023/12/04 07:00:42;;;;;;;40.00;28.70;;;;;;;-3.92;100.00;99635.55;109554;1251;59136;-74
2023/12/04 07:03:08;;;;;;;36.40;27.90;;;;;;;-4.01;100.00;99636.06;109539;1251;65948;-74
2023/12/04 07:05:36;;;;;;;42.70;29.40;;;;;;;-4.12;100.00;99641.41;109400;1251;59725;-74
2023/12/04 07:08:02;;;;;;;67.10;42.20;;;;;;;-4.22;100.00;99650.40;109555;1251;65099;-75
2023/12/04 07:10:29;;;;;;;66.20;41.70;;;;;;;-4.34;100.00;99654.01;109549;1251;59054;-75
2023/12/04 07:12:56;;;;;;;63.70;40.00;;;;;;;-4.46;100.00;99646.85;109582;1251;59048;-75
2023/12/04 07:15:23;;;;;;;62.70;38.00;;;;;;;-4.54;100.00;99642.66;108795;1251;1002801;-73
2023/12/04 07:17:49;;;;;;;55.50;35.70;;;;;;;-4.58;100.00;99646.29;108837;1250;1002531;-74
2023/12/04 07:20:16;;;;;;;62.00;38.40;;;;;;;-4.59;100.00;99645.58;108811;1251;1002475;-74
2023/12/04 07:22:43;;;;;;;59.50;36.40;;;;;;;-4.62;100.00;99643.83;108005;1251;1003022;-74
2023/12/04 07:25:09;;;;;;;54.40;37.70;;;;;;;-4.64;100.00;99639.65;109569;1251;59000;-74
2023/12/04 07:27:36;;;;;;;55.90;35.70;;;;;;;-4.62;100.00;99639.48;109607;1251;66784;-73
2023/12/04 07:30:04;;;;;;;56.20;37.40;;;;;;;-4.60;100.00;99641.77;109621;1251;61416;-75
2023/12/04 07:32:32;;;;;;;71.40;40.70;;;;;;;-4.58;100.00;99651.13;109356;1251;64045;-73
2023/12/04 07:34:59;;;;;;;88.60;48.10;;;;;;;-4.55;100.00;99650.61;109606;1251;58989;-74
2023/12/04 07:37:25;;;;;;;76.60;47.60;;;;;;;-4.51;100.00;99653.76;109550;1251;58957;-74
2023/12/04 07:39:52;;;;;;;73.00;44.80;;;;;;;-4.46;100.00;99656.73;109543;1251;66554;-75
2023/12/04 07:42:19;;;;;;;74.30;44.80;;;;;;;-4.41;100.00;99658.14;108798;1251;1002758;-74
2023/12/04 07:44:46;;;;;;;68.80;45.10;;;;;;;-4.33;100.00;99655.40;109612;1251;64062;-74
2023/12/04 07:47:14;;;;;;;73.80;44.20;;;;;;;-4.27;100.00;99658.89;109565;1251;59113;-73
2023/12/04 07:49:40;;;;;;;72.70;46.10;;;;;;;-4.22;100.00;99661.68;109562;1251;59042;-74
2023/12/04 07:52:07;;;;;;;71.10;43.80;;;;;;;-4.18;100.00;99659.27;109408;1251;66132;-73
2023/12/04 07:54:34;;;;;;;65.80;42.10;;;;;;;-4.12;100.00;99659.45;109640;1251;60016;-75
2023/12/04 07:57:00;;;;;;;61.50;43.10;;;;;;;-4.06;100.00;99659.48;109530;1251;65274;-74
2023/12/04 07:59:27;;;;;;;69.00;44.30;;;;;;;-3.97;100.00;99657.25;109532;1251;58934;-74
2023/12/04 08:01:54;;;;;;;60.80;44.60;;;;;;;-3.90;100.00;99654.13;109603;1251;58943;-74
2023/12/04 08:04:20;;;;;;;72.70;49.20;;;;;;;-3.84;100.00;99654.15;108821;1250;1002311;-73
2023/12/04 08:06:47;;;;;;;72.10;50.20;;;;;;;-3.77;100.00;99650.00;109560;1251;59025;-73
2023/12/04 08:09:14;;;;;;;77.20;52.00;;;;;;;-3.70;100.00;99658.33;108779;1251;1003055;-74
2023/12/04 08:11:40;;;;;;;71.90;51.10;;;;;;;-3.65;100.00;99659.89;108064;1251;1002991;-74
2023/12/04 08:14:07;;;;;;;69.60;50.50;;;;;;;-3.59;100.00;99660.25;109331;1251;59104;-75
2023/12/04 08:16:33;;;;;;;71.10;49.10;;;;;;;-3.54;100.00;99656.08;109590;1251;59071;-73
2023/12/04 08:19:00;;;;;;;62.50;43.50;;;;;;;-3.47;100.00;99653.13;108060;1251;1002613;-73
2023/12/04 08:21:27;;;;;;;65.80;46.50;;;;;;;-3.40;100.00;99649.48;109613;1251;59070;-74
2023/12/04 08:23:54;;;;;;;60.00;42.60;;;;;;;-3.33;100.00;99647.41;109552;1251;59046;-74
2023/12/04 08:26:22;;;;;;;60.60;42.10;;;;;;;-3.24;100.00;99650.87;109587;1251;58921;-75
2023/12/04 08:28:49;;;;;;;65.40;43.90;;;;;;;-3.17;100.00;99652.44;109490;1251;67023;-73
2023/12/04 08:31:16;;;;;;;55.80;39.50;;;;;;;-3.10;100.00;99650.86;109554;1251;60186;-74
2023/12/04 08:33:43;;;;;;;58.40;40.90;;;;;;;-3.02;100.00;99654.32;109579;1251;64052;-74
2023/12/04 08:36:11;;;;;;;60.20;40.70;;;;;;;-2.95;100.00;99658.31;108728;1251;1003154;-75
2023/12/04 08:38:38;;;;;;;60.50;41.60;;;;;;;-2.87;100.00;99659.34;109571;1251;59100;-74
2023/12/04 08:41:05;;;;;;;63.00;39.80;;;;;;;-2.79;100.00;99661.75;109533;1250;67024;-74
2023/12/04 08:43:31;;;;;;;58.40;39.10;;;;;;;-2.73;100.00;99657.58;109593;1251;61124;-74
2023/12/04 08:46:00;;;;;;;63.10;41.00;;;;;;;-2.66;100.00;99658.06;109529;1251;64989;-74
2023/12/04 08:48:26;;;;;;;60.70;40.90;;;;;;;-2.59;100.00;99654.39;109525;1251;58942;-74
2023/12/04 08:50:53;;;;;;;59.30;37.70;;;;;;;-2.50;100.00;99654.71;109555;1251;58955;-74
2023/12/04 08:53:19;;;;;;;53.00;35.90;;;;;;;-2.43;100.00;99655.55;109538;1251;65940;-74
2023/12/04 08:55:46;;;;;;;52.00;35.70;;;;;;;-2.37;100.00;99658.32;109561;1251;61103;-74
2023/12/04 08:58:13;;;;;;;46.30;33.00;;;;;;;-2.29;100.00;99655.84;109580;1254;64037;-74
2023/12/04 09:00:42;;;;;;;51.30;36.30;;;;;;;-2.24;100.00;99655.48;109559;1251;59000;-74
2023/12/04 09:03:12;;;;;;;49.20;36.30;;;;;;;-2.18;100.00;99651.45;109532;1251;59198;-74
2023/12/04 09:05:39;;;;;;;;;;;;;;;-2.12;100.00;99650.20;109584;1251;66931;-75
2023/12/04 09:08:06;;;;;;;51.30;37.70;;;;;;;-2.09;100.00;99645.83;109589;1250;59026;-74
2023/12/04 09:10:33;;;;;;;48.80;35.20;;;;;;;-2.03;100.00;99640.41;109592;1251;63940;-73
2023/12/04 09:13:00;;;;;;;51.50;35.70;;;;;;;-1.96;100.00;99640.52;109536;1251;59033;-76
2023/12/04 09:15:26;;;;;;;44.70;31.90;;;;;;;-1.89;100.00;99643.80;109240;1251;59017;-74
2023/12/04 09:17:53;;;;;;;44.20;32.00;;;;;;;-1.82;100.00;99646.20;109547;1251;66987;-74
2023/12/04 09:20:20;;;;;;;47.70;34.50;;;;;;;-1.74;100.00;99641.95;109632;1250;61261;-73
2023/12/04 09:22:47;;;;;;;44.20;31.60;;;;;;;-1.67;100.00;99637.38;109568;1251;64991;-74
2023/12/04 09:25:13;;;;;;;46.40;30.70;;;;;;;-1.62;100.00;99632.64;109530;1251;58986;-75
2023/12/04 09:27:40;;;;;;;46.00;31.00;;;;;;;-1.57;100.00;99632.59;109598;1251;59022;-76
2023/12/04 09:30:07;;;;;;;44.10;30.40;;;;;;;-1.50;100.00;99630.11;109611;1251;67036;-74
2023/12/04 09:32:34;;;;;;;42.70;29.20;;;;;;;-1.43;100.00;99625.18;107714;1251;1002502;-75
2023/12/04 09:35:00;;;;;;;40.40;28.50;;;;;;;-1.39;100.00;99623.74;109306;1251;64251;-75
2023/12/04 09:37:27;;;;;;;41.70;28.20;;;;;;;-1.35;100.00;99618.31;109523;1251;58984;-75
2023/12/04 09:39:54;;;;;;;39.30;27.60;;;;;;;-1.29;100.00;99616.86;109588;1251;59131;-74
2023/12/04 09:42:21;;;;;;;43.90;28.50;;;;;;;-1.23;100.00;99614.89;109590;1250;66934;-75
2023/12/04 09:44:49;;;;;;;43.90;29.80;;;;;;;-1.16;100.00;99608.71;109600;1254;60078;-74
2023/12/04 09:47:17;;;;;;;45.30;30.20;;;;;;;-1.08;100.00;99603.25;109380;1251;65379;-74
2023/12/04 09:49:45;;;;;;;42.90;29.00;;;;;;;-1.04;100.00;99600.23;109522;1251;58933;-75
2023/12/04 09:52:12;;;;;;;38.70;25.70;;;;;;;-0.98;100.00;99596.16;109523;1250;59123;-74
2023/12/04 09:54:39;;;;;;;39.00;27.10;;;;;;;-0.91;100.00;99590.52;109655;1251;65996;-74
2023/12/04 09:57:06;;;;;;;33.70;24.30;;;;;;;-0.85;100.00;99586.08;109228;1251;61033;-74
2023/12/04 09:59:35;;;;;;;28.80;20.30;;;;;;;-0.79;100.00;99580.08;109527;1251;64794;-74
2023/12/04 10:02:02;;;;;;;27.40;19.90;;;;;;;-0.73;100.00;99577.04;109516;1251;58994;-78
2023/12/04 10:04:29;;;;;;;26.00;19.30;;;;;;;-0.66;100.00;99575.91;109560;1251;59186;-74
2023/12/04 10:06:55;;;;;;;27.90;19.20;;;;;;;-0.58;100.00;99576.17;109593;1251;65961;-75
2023/12/04 10:09:22;;;;;;;25.70;19.00;;;;;;;-0.50;100.00;99575.52;109402;1251;61127;-75
2023/12/04 10:11:53;;;;;;;30.80;18.90;;;;;;;-0.42;100.00;99570.90;109491;1251;63988;-75
2023/12/04 10:14:20;;;;;;;26.60;18.70;;;;;;;-0.33;100.00;99570.09;109568;1251;58967;-75
2023/12/04 10:16:49;;;;;;;31.20;19.70;;;;;;;-0.25;100.00;99571.02;109610;1251;58975;-74
2023/12/04 10:19:18;;;;;;;26.50;18.30;;;;;;;-0.19;100.00;99565.70;109576;1251;67035;-75
2023/12/04 10:21:46;;;;;;;27.00;18.10;;;;;;;-0.13;100.00;99565.09;109563;1251;60220;-75
2023/12/04 10:24:27;;;;;;;30.60;19.10;;;;;;;-0.08;100.00;99561.52;109527;1251;64895;-73
2023/12/04 10:26:54;;;;;;;27.30;17.30;;;;;;;0.01;100.00;99555.98;109366;1251;59128;-74
2023/12/04 10:29:20;;;;;;;24.30;17.20;;;;;;;0.07;100.00;99553.95;109614;1251;60038;-75
2023/12/04 10:31:50;;;;;;;22.60;17.30;;;;;;;0.18;100.00;99549.95;109544;1250;67168;-74
2023/12/04 10:34:17;;;;;;;30.10;19.30;;;;;;;0.30;100.00;99546.09;109564;1251;61121;-74
2023/12/04 10:36:45;;;;;;;26.00;17.60;;;;;;;0.41;100.00;99540.13;109570;1251;65273;-74
2023/12/04 10:39:15;;;;;;;27.40;21.10;;;;;;;0.46;100.00;99536.01;109595;1251;58984;-74
2023/12/04 10:41:43;;;;;;;;;;;;;;;0.48;100.00;99531.11;109582;1251;59051;-74
2023/12/04 10:44:09;;;;;;;24.20;18.30;;;;;;;0.49;100.00;99528.98;109578;1251;66025;-75
2023/12/04 10:46:37;;;;;;;23.90;20.50;;;;;;;0.56;100.00;99522.73;109601;1251;61119;-75
2023/12/04 10:49:04;;;;;;;23.40;17.10;;;;;;;0.66;100.00;99522.02;109592;1251;65211;-75
2023/12/04 10:51:30;;;;;;;21.30;16.60;;;;;;;0.74;100.00;99521.36;109504;1251;59004;-75
2023/12/04 10:53:57;;;;;;;22.80;16.80;;;;;;;0.83;100.00;99514.88;109628;1251;58995;-74
2023/12/04 10:56:37;;;;;;;25.40;18.40;;;;;;;0.98;100.00;99515.14;109581;1251;66920;-75
2023/12/04 10:59:11;;;;;;;31.80;23.30;;;;;;;1.05;100.00;99512.90;109586;1251;61118;-75